Terminal Aerodrome Forecast
Issued by NWS

Current Version | Previous Version | Text Only | Print | Product List | Glossary Off
Versions: 1 2 3 4 5 6 7 8 9 10 11 12 13 14 15 16 17 18 19

000
FTUS41 KRNK 150520
TAFLWB
TAF
KLWB 150520Z 1506/1606 24008KT P6SM VCSH OVC006
     FM150800 25008KT 5SM BR BKN010
      TEMPO 1508/1511 2SM -SHRA BR OVC003
     FM151100 26009KT P6SM BKN015 WS020/27040KT
     FM151300 27010KT 5SM BR VCSH BKN010
     FM151600 27008KT P6SM BKN020
     FM160500 25006KT P6SM BKN025=

USA.gov is the U.S. government's official web portal to all federal, state and local government web resources and services.